Airfield :
LOGIN :

Register | Disclaimer

   EN    FR    IT 

 










Legend :    VFR   Marginal VFR   IFR   Intensive IFR   Very Intensive IFR
Visi :
Ceiling :
>= 8 km
>= 3000ft
5 to 8 km
1000 to 3000 ft
1500m to 5 km
500 to 1000 ft
800 to 1500m
200 to 500 ft
< 800m
< 200 ft
Symbols :   Thunderstorms  Fog  Heavy snow  Heavy precipitations  Wind > 20 kt
SIGMETs :     Misc.  Thunderstorms  Icing  Turbulence  Mountain Waves  Volcanic Ashes







- Airport Elevation : 106 ft
- IATA code : NRN


EDLV - Weeze

CURRENT METAR :
  • 180650Z VRB03KT 3700 -DZ BR BKN005 06/06 Q1017

EXPIRED METARs :
  • 180620Z 00000KT 2300 -DZ BR BKN004 06/06 Q1017
  • 180550Z 00000KT 2500 -DZ BR BKN003 05/05 Q1016
  • 180520Z VRB03KT 4500 -DZ BKN003 05/05 Q1016
  • 180450Z 25004KT 230V290 4900 -DZ BKN004 04/04 Q1015
  • 180420Z VRB03KT 4800 -DZ BKN003 03/03 Q1015

TAF TAF EDLV
Valid from the 18 at 06:00 until the 19 at 06:00 UTC


180500Z 1806/1906 33006KT 6000 BKN007
TEMPO 1806/1810 2500 -DZRA BKN004
BECMG 1810/1813 BKN012
TEMPO 1813/1818 BKN007
BECMG 1818/1821 SCT030
TEMPO 1903/1906 4000 BR BKN008
No reported NOTAMs for that airfield.
2 SIGMETs reported for the Langen FIR (EDGG) :
 
Severe icing
EDGG SIGMET 2 VALID 180704/180900 EDZF
EDGG LANGEN FIR SEV ICE FCST S OF N5025 AND W OF E00820 1000FT/FL100 STNR WKN=
Severe icing
EDGG SIGMET 1 VALID 180300/180700 EDZF
EDGG LANGEN FIR SEV ICE FCST WI N5128 E00539 - N5115 E00954 - N4909 E00859 - N4714 E00744 - N4903 E00647 - N5128 E00539 1000FT/FL130 MOV SE NC=



MET'MAP, your aeronautical weather chart ! - Copyright ORBIFLY December 2007 - Disclaimer

ORBIFLY MET'MAP TEAM :

Programming & Development : Alexandra Zaïnal
Concept & Development : Baudouin d'Aumeries
Co-Development & Prog : Marc-Olivier Méhu
Technical & hardware support : Manuel Goepfert

Contact : metmap@orbifly.com




SOURCES & CREDITS :

   NOAA